Time;durP1;ratioP1;P1;durP2;ratioP2;P2;SDS_P1;SDS_P2;PMS_P1;PMS_P2;Temp;Humidity;BMP_temperature;BMP_pressure;BME280_temperature;BME280_humidity;BME280_pressure;Samples;Min_cycle;Max_cycle;Signal;HPM_P1;HPM_P2
2023/10/06 00:00:54;;;;;;;11.80;6.10;;;9.30;99.90;;;;;;5061067;28;20447;-69
2023/10/06 00:03:21;;;;;;;13.63;6.63;;;9.30;99.90;;;;;;5070132;28;20517;-69
2023/10/06 00:05:49;;;;;;;13.73;6.60;;;9.30;99.90;;;;;;5069096;28;21072;-69
2023/10/06 00:08:17;;;;;;;11.67;5.73;;;9.30;99.90;;;;;;5069469;28;20570;-69
2023/10/06 00:10:46;;;;;;;10.73;5.50;;;9.30;99.90;;;;;;5070882;28;20475;-69
2023/10/06 00:13:18;;;;;;;12.17;5.80;;;9.30;99.90;;;;;;5070460;28;20440;-69
2023/10/06 00:15:49;;;;;;;18.03;6.03;;;9.30;99.90;;;;;;5072872;28;20913;-69
2023/10/06 00:18:19;;;;;;;14.63;6.43;;;9.30;99.90;;;;;;5065070;28;20447;-69
2023/10/06 00:20:48;;;;;;;8.80;5.87;;;9.20;99.90;;;;;;5070601;28;20451;-69
2023/10/06 00:23:21;;;;;;;10.07;5.93;;;9.20;99.90;;;;;;5072165;28;20945;-69
2023/10/06 00:25:51;;;;;;;9.37;6.30;;;9.10;99.90;;;;;;5072648;28;20583;-69
2023/10/06 00:28:19;;;;;;;16.70;6.30;;;9.10;99.90;;;;;;5072073;28;21021;-69
2023/10/06 00:30:55;;;;;;;13.97;6.30;;;9.10;99.90;;;;;;5067853;28;20826;-69
2023/10/06 00:33:22;;;;;;;12.27;6.23;;;9.00;99.90;;;;;;5064754;28;20511;-69
2023/10/06 00:35:50;;;;;;;10.83;6.63;;;9.00;99.90;;;;;;5068134;28;20482;-69
2023/10/06 00:38:17;;;;;;;8.93;5.70;;;9.00;99.90;;;;;;5069237;28;20539;-69
2023/10/06 00:40:51;;;;;;;14.40;5.97;;;9.00;99.90;;;;;;5072516;28;20526;-69
2023/10/06 00:43:30;;;;;;;12.90;5.83;;;9.00;99.90;;;;;;5071981;28;20469;-69
2023/10/06 00:46:00;;;;;;;10.20;5.83;;;9.00;99.90;;;;;;5071752;28;20579;-69
2023/10/06 00:48:29;;;;;;;11.37;6.27;;;9.00;99.90;;;;;;5065840;28;20999;-69
2023/10/06 00:50:58;;;;;;;11.80;6.03;;;9.00;99.90;;;;;;5071592;28;20448;-69
2023/10/06 00:53:31;;;;;;;8.97;6.10;;;8.90;99.90;;;;;;5064268;28;20444;-68
2023/10/06 00:55:59;;;;;;;9.87;5.97;;;8.90;99.90;;;;;;5070699;28;20484;-68
2023/10/06 00:58:28;;;;;;;13.70;6.20;;;9.00;99.90;;;;;;5070918;28;20440;-68
2023/10/06 01:00:56;;;;;;;7.97;5.70;;;8.90;99.90;;;;;;5066705;28;20457;-69
2023/10/06 01:03:25;;;;;;;10.13;6.00;;;8.90;99.90;;;;;;5063811;28;20542;-70
2023/10/06 01:05:57;;;;;;;14.27;6.30;;;8.90;99.90;;;;;;5060523;28;20487;-69
2023/10/06 01:08:24;;;;;;;9.77;6.90;;;8.90;99.90;;;;;;5064630;28;20447;-69
2023/10/06 01:10:51;;;;;;;10.90;6.77;;;8.90;99.90;;;;;;5066864;28;20459;-69
2023/10/06 01:13:19;;;;;;;110.50;12.63;;;8.90;99.90;;;;;;5071611;28;20467;-69
2023/10/06 01:15:49;;;;;;;22.40;9.93;;;8.90;99.90;;;;;;5071864;28;20487;-69
2023/10/06 01:18:23;;;;;;;52.83;10.30;;;8.90;99.90;;;;;;5071639;28;20494;-69
2023/10/06 01:20:52;;;;;;;47.97;10.90;;;8.90;99.90;;;;;;5071463;28;20465;-69
2023/10/06 01:23:21;;;;;;;32.37;11.30;;;8.90;99.90;;;;;;5071770;28;20450;-69
2023/10/06 01:25:53;;;;;;;16.90;10.30;;;8.90;99.90;;;;;;5071371;28;20491;-69
2023/10/06 01:28:20;;;;;;;92.17;11.87;;;9.00;99.90;;;;;;5065537;28;20451;-69
2023/10/06 01:30:46;;;;;;;102.33;11.47;;;9.00;99.90;;;;;;5061555;28;20823;-69
2023/10/06 01:33:13;;;;;;;74.13;9.93;;;9.10;99.90;;;;;;5070697;28;20444;-69
2023/10/06 01:35:42;;;;;;;46.37;10.50;;;9.00;99.90;;;;;;5071285;28;20519;-69
2023/10/06 01:38:18;;;;;;;52.13;9.43;;;9.10;99.90;;;;;;5070219;28;20498;-69
2023/10/06 01:40:50;;;;;;;63.83;9.63;;;9.00;99.90;;;;;;5070707;28;20528;-69
2023/10/06 01:43:22;;;;;;;43.40;9.60;;;8.90;99.90;;;;;;5070986;28;20458;-69
2023/10/06 01:45:49;;;;;;;18.07;9.50;;;8.90;99.90;;;;;;5071318;28;20491;-69
2023/10/06 01:48:29;;;;;;;28.27;9.80;;;8.80;99.90;;;;;;5070564;28;20462;-69
2023/10/06 01:50:56;;;;;;;28.17;9.10;;;8.80;99.90;;;;;;5070867;28;20461;-69
2023/10/06 01:53:23;;;;;;;18.93;9.17;;;8.70;99.90;;;;;;5071562;28;20436;-69
2023/10/06 01:55:52;;;;;;;20.03;9.20;;;8.70;99.90;;;;;;5065612;28;20474;-69
2023/10/06 01:58:19;;;;;;;14.27;8.60;;;8.70;99.90;;;;;;5061123;28;20949;-69
2023/10/06 02:00:48;;;;;;;10.87;8.50;;;8.70;99.90;;;;;;5064727;28;20451;-69
2023/10/06 02:03:17;;;;;;;18.43;9.40;;;8.70;99.90;;;;;;5063433;28;20457;-69
2023/10/06 02:05:44;;;;;;;17.00;9.60;;;8.80;99.90;;;;;;5070546;28;20498;-69
2023/10/06 02:08:14;;;;;;;15.70;9.87;;;8.80;99.90;;;;;;5062780;28;20826;-69
2023/10/06 02:10:43;;;;;;;15.17;8.93;;;8.70;99.90;;;;;;5067625;28;20455;-69
2023/10/06 02:13:11;;;;;;;16.87;9.03;;;8.70;99.90;;;;;;5070781;28;20454;-69
2023/10/06 02:15:38;;;;;;;24.73;9.50;;;8.70;99.90;;;;;;5070608;28;20468;-69
2023/10/06 02:18:12;;;;;;;39.20;9.87;;;8.70;99.90;;;;;;5070705;28;20460;-69
2023/10/06 02:20:41;;;;;;;36.43;10.60;;;8.70;99.90;;;;;;5070429;28;20542;-69
2023/10/06 02:23:08;;;;;;;16.53;9.63;;;8.70;99.90;;;;;;5070081;28;20483;-69
2023/10/06 02:25:36;;;;;;;33.50;10.10;;;8.70;99.90;;;;;;5070733;28;20487;-69
2023/10/06 02:28:05;;;;;;;124.70;11.57;;;8.70;99.90;;;;;;5070472;28;20479;-69
2023/10/06 02:30:37;;;;;;;94.50;11.23;;;8.60;99.90;;;;;;5070808;28;20460;-69
2023/10/06 02:33:05;;;;;;;56.33;10.53;;;8.60;99.90;;;;;;5064199;28;20873;-69
2023/10/06 02:35:31;;;;;;;86.97;9.97;;;8.50;99.90;;;;;;5070770;28;20448;-69
2023/10/06 02:38:04;;;;;;;57.70;8.57;;;8.50;99.90;;;;;;5070365;28;20964;-69
2023/10/06 02:40:37;;;;;;;78.10;8.47;;;8.40;99.90;;;;;;5070870;28;20447;-69
2023/10/06 02:43:06;;;;;;;139.90;9.63;;;8.30;99.90;;;;;;5063289;28;20468;-69
2023/10/06 02:45:40;;;;;;;86.23;9.03;;;8.20;99.90;;;;;;5069935;28;20494;-70
2023/10/06 02:48:14;;;;;;;47.90;8.27;;;8.20;99.90;;;;;;5070559;28;20906;-69
2023/10/06 02:50:44;;;;;;;73.30;9.10;;;8.10;99.90;;;;;;5070777;28;20475;-69
2023/10/06 02:53:14;;;;;;;56.97;8.67;;;8.10;99.90;;;;;;5070406;28;20459;-69
2023/10/06 02:55:43;;;;;;;31.47;9.03;;;8.00;99.90;;;;;;5070733;28;20562;-69
2023/10/06 02:58:10;;;;;;;69.73;9.37;;;7.90;99.90;;;;;;5070433;28;20466;-69
2023/10/06 03:00:38;;;;;;;118.30;10.93;;;7.90;99.90;;;;;;5069954;28;20458;-69
2023/10/06 03:03:12;;;;;;;111.13;11.20;;;7.90;99.90;;;;;;5070357;28;20841;-69
2023/10/06 03:05:40;;;;;;;77.17;10.17;;;7.90;99.90;;;;;;5068807;28;20553;-69
2023/10/06 03:08:08;;;;;;;158.90;12.20;;;8.00;99.90;;;;;;5060347;28;20462;-69
2023/10/06 03:10:42;;;;;;;48.03;10.87;;;7.90;99.90;;;;;;5070666;28;20447;-69
2023/10/06 03:13:10;;;;;;;48.63;10.20;;;7.90;99.90;;;;;;5070459;28;20479;-69
2023/10/06 03:15:45;;;;;;;52.63;9.37;;;7.90;99.90;;;;;;5070506;28;20968;-69
2023/10/06 03:18:13;;;;;;;76.43;10.20;;;8.00;99.90;;;;;;5070269;28;20455;-69
2023/10/06 03:20:46;;;;;;;128.87;11.23;;;8.10;99.90;;;;;;5070648;28;20526;-69
2023/10/06 03:23:24;;;;;;;37.60;9.23;;;8.10;99.90;;;;;;5070114;28;20494;-69
2023/10/06 03:25:53;;;;;;;36.07;9.57;;;8.10;99.90;;;;;;5070568;28;20491;-69
2023/10/06 03:28:20;;;;;;;34.53;9.20;;;8.20;99.90;;;;;;5068350;28;20451;-69
2023/10/06 03:30:49;;;;;;;41.77;9.13;;;8.20;99.90;;;;;;5059088;28;20452;-69
2023/10/06 03:33:18;;;;;;;38.17;8.93;;;8.20;99.90;;;;;;5069156;28;20456;-69
2023/10/06 03:35:47;;;;;;;19.77;9.67;;;8.20;99.90;;;;;;5073347;28;20851;-69
2023/10/06 03:38:28;;;;;;;50.77;9.50;;;8.30;99.90;;;;;;5073099;28;20483;-69
2023/10/06 03:41:09;;;;;;;95.17;10.13;;;8.30;99.90;;;;;;5073433;28;20447;-69
2023/10/06 03:43:40;;;;;;;54.20;9.43;;;8.30;99.90;;;;;;5067364;28;20471;-69
2023/10/06 03:46:09;;;;;;;44.23;8.40;;;8.20;99.90;;;;;;5073448;28;20513;-69
2023/10/06 03:48:36;;;;;;;63.07;9.70;;;8.20;99.90;;;;;;5073580;28;20569;-69
2023/10/06 03:51:04;;;;;;;38.00;8.07;;;8.10;99.90;;;;;;5073388;28;20581;-70
2023/10/06 03:53:30;;;;;;;79.83;9.07;;;8.00;99.90;;;;;;5066712;28;20456;-70
2023/10/06 03:55:57;;;;;;;54.00;10.10;;;8.00;99.90;;;;;;5072629;28;20549;-70
2023/10/06 03:58:28;;;;;;;44.77;11.97;;;7.90;99.90;;;;;;5065013;28;20922;-70
2023/10/06 04:00:54;;;;;;;35.60;9.50;;;7.90;99.90;;;;;;5071979;28;20535;-70
2023/10/06 04:03:23;;;;;;;47.17;9.70;;;8.10;99.90;;;;;;5071780;28;20541;-70
2023/10/06 04:05:52;;;;;;;70.07;9.90;;;8.10;99.90;;;;;;5073557;28;20497;-70
2023/10/06 04:08:22;;;;;;;39.00;9.80;;;8.20;99.90;;;;;;5072546;28;20973;-70
2023/10/06 04:10:51;;;;;;;45.53;8.70;;;8.30;99.90;;;;;;5073639;28;20465;-70
2023/10/06 04:13:18;;;;;;;89.03;9.93;;;8.30;99.90;;;;;;5073436;28;20534;-70
2023/10/06 04:15:49;;;;;;;50.90;9.50;;;8.30;99.90;;;;;;5073582;28;20468;-70
2023/10/06 04:18:17;;;;;;;42.57;9.00;;;8.40;99.90;;;;;;5071944;28;20555;-70
2023/10/06 04:20:46;;;;;;;33.93;8.60;;;8.40;99.90;;;;;;5070631;28;20546;-70
2023/10/06 04:23:14;;;;;;;63.50;8.93;;;8.40;99.90;;;;;;5072259;28;20494;-70
2023/10/06 04:25:42;;;;;;;61.30;9.30;;;8.50;99.90;;;;;;5073278;28;20468;-70
2023/10/06 04:28:11;;;;;;;45.17;9.27;;;8.40;99.90;;;;;;5072126;28;20460;-70
2023/10/06 04:30:38;;;;;;;55.17;9.50;;;8.40;99.90;;;;;;5073141;28;20456;-70
2023/10/06 04:33:05;;;;;;;53.50;9.43;;;8.40;99.90;;;;;;5072840;28;20963;-70
2023/10/06 04:35:32;;;;;;;30.37;9.57;;;8.50;99.90;;;;;;5072706;28;20448;-68
2023/10/06 04:38:00;;;;;;;72.50;10.37;;;8.50;99.90;;;;;;5072760;28;20497;-70
2023/10/06 04:40:27;;;;;;;35.63;10.50;;;8.60;99.90;;;;;;5065698;28;20531;-70
2023/10/06 04:42:56;;;;;;;44.20;9.90;;;8.60;99.90;;;;;;5073065;28;20823;-71
2023/10/06 04:45:23;;;;;;;43.53;10.10;;;8.60;99.90;;;;;;5072235;28;20517;-70
2023/10/06 04:47:50;;;;;;;43.10;9.30;;;8.60;99.90;;;;;;5072168;28;20904;-70
2023/10/06 04:50:16;;;;;;;56.50;10.80;;;8.60;99.90;;;;;;5072813;28;20945;-70
2023/10/06 04:52:46;;;;;;;39.73;9.10;;;8.60;99.90;;;;;;5071559;28;20460;-70
2023/10/06 04:55:15;;;;;;;44.40;10.00;;;8.60;99.90;;;;;;5064614;28;20461;-70
2023/10/06 04:57:42;;;;;;;36.27;9.57;;;8.60;99.90;;;;;;5071844;28;20444;-70
2023/10/06 05:00:15;;;;;;;54.93;10.30;;;8.70;99.90;;;;;;5071574;28;20531;-70
2023/10/06 05:02:47;;;;;;;52.10;10.60;;;8.70;99.90;;;;;;5072005;28;20463;-69
2023/10/06 05:05:14;;;;;;;41.53;9.20;;;8.70;99.90;;;;;;5072073;28;20464;-70
2023/10/06 05:07:41;;;;;;;37.87;9.30;;;8.70;99.90;;;;;;5071461;28;20491;-70
2023/10/06 05:10:09;;;;;;;35.40;10.17;;;8.70;99.90;;;;;;5072388;28;20451;-70
2023/10/06 05:12:38;;;;;;;68.13;10.30;;;8.60;99.90;;;;;;5071056;28;20460;-70
2023/10/06 05:15:09;;;;;;;31.67;10.47;;;8.50;99.90;;;;;;5070755;28;20964;-70
2023/10/06 05:17:36;;;;;;;50.33;9.30;;;8.40;99.90;;;;;;5069953;28;20472;-70
2023/10/06 05:20:04;;;;;;;46.10;9.33;;;8.40;99.90;;;;;;5071826;28;20452;-70
2023/10/06 05:22:31;;;;;;;92.70;10.40;;;8.30;99.90;;;;;;5071924;28;20464;-70
2023/10/06 05:24:59;;;;;;;46.53;10.00;;;8.20;99.90;;;;;;5072006;28;20487;-69
2023/10/06 05:27:26;;;;;;;33.13;8.73;;;8.20;99.90;;;;;;5071221;28;20491;-69
2023/10/06 05:29:54;;;;;;;25.47;9.10;;;8.20;99.90;;;;;;5072148;28;20444;-69
2023/10/06 05:32:21;;;;;;;51.57;10.17;;;8.20;99.90;;;;;;5066726;28;20460;-69
2023/10/06 05:34:47;;;;;;;43.90;9.30;;;8.20;99.90;;;;;;5071657;28;20470;-69
2023/10/06 05:37:15;;;;;;;44.27;10.30;;;8.30;99.90;;;;;;5071198;28;20467;-70
2023/10/06 05:39:42;;;;;;;30.13;9.60;;;8.30;99.90;;;;;;5071783;28;20478;-69
2023/10/06 05:42:10;;;;;;;40.07;9.53;;;8.20;99.90;;;;;;5070988;28;20456;-69
2023/10/06 05:44:37;;;;;;;28.23;8.13;;;8.20;99.90;;;;;;5071554;28;20463;-69
2023/10/06 05:47:08;;;;;;;47.97;10.20;;;8.20;99.90;;;;;;5071110;28;20578;-69
2023/10/06 05:49:35;;;;;;;39.97;9.10;;;8.20;99.90;;;;;;5071478;28;20448;-69
2023/10/06 05:52:03;;;;;;;108.27;11.00;;;8.10;99.90;;;;;;5068051;28;20542;-69
2023/10/06 05:54:30;;;;;;;20.90;10.17;;;8.10;99.90;;;;;;5070822;28;20547;-69
2023/10/06 05:56:56;;;;;;;29.13;8.90;;;8.10;99.90;;;;;;5070899;28;20456;-69
2023/10/06 05:59:25;;;;;;;41.93;10.03;;;8.20;99.90;;;;;;5069411;28;20505;-69
2023/10/06 06:02:00;;;;;;;91.70;10.43;;;8.30;99.90;;;;;;5070841;28;20463;-69
2023/10/06 06:04:30;;;;;;;48.27;8.80;;;8.30;99.90;;;;;;5070291;28;20882;-69
2023/10/06 06:06:57;;;;;;;117.73;10.77;;;8.20;99.90;;;;;;5070377;28;20605;-69
2023/10/06 06:09:24;;;;;;;69.30;10.60;;;8.20;99.90;;;;;;5071161;28;20436;-70
2023/10/06 06:11:51;;;;;;;66.13;10.30;;;8.20;99.90;;;;;;5070946;28;20452;-69
2023/10/06 06:14:20;;;;;;;63.10;8.67;;;8.20;99.90;;;;;;5071172;28;20823;-69
2023/10/06 06:20:14;;;;;;;56.43;9.60;;;8.10;99.90;;;;;;5066571;28;20940;-69
2023/10/06 06:22:48;;;;;;;59.63;10.03;;;8.10;99.90;;;;;;5075304;28;20590;-69
2023/10/06 06:25:16;;;;;;;66.30;8.70;;;8.00;99.90;;;;;;5068070;28;20583;-69
2023/10/06 06:27:43;;;;;;;26.87;7.80;;;8.00;99.90;;;;;;5069509;28;20505;-69
2023/10/06 06:30:11;;;;;;;26.63;7.47;;;8.00;99.90;;;;;;5071060;28;21003;-69
2023/10/06 06:32:38;;;;;;;27.90;8.90;;;8.00;99.90;;;;;;5068914;28;20888;-69
2023/10/06 06:35:07;;;;;;;52.23;8.80;;;8.00;99.90;;;;;;5071499;28;20459;-69
2023/10/06 06:37:36;;;;;;;17.70;8.30;;;8.00;99.90;;;;;;5070293;28;20820;-69
2023/10/06 06:40:06;;;;;;;25.83;9.13;;;8.00;99.90;;;;;;5076937;28;20447;-69
2023/10/06 06:42:32;;;;;;;41.97;8.53;;;7.90;99.90;;;;;;5063600;28;20443;-69
2023/10/06 06:45:01;;;;;;;127.20;11.07;;;8.00;99.90;;;;;;5067759;28;20494;-69
2023/10/06 06:47:28;;;;;;;76.33;10.17;;;8.00;99.90;;;;;;5070330;28;20483;-69
2023/10/06 06:49:55;;;;;;;104.70;11.27;;;8.00;99.90;;;;;;5067903;28;20456;-69
2023/10/06 06:52:22;;;;;;;40.80;9.37;;;8.10;99.90;;;;;;5064495;28;20538;-69
2023/10/06 06:54:50;;;;;;;93.03;11.70;;;8.10;99.90;;;;;;5070899;28;20563;-69
2023/10/06 06:57:17;;;;;;;162.47;13.83;;;8.20;99.90;;;;;;5069020;28;20487;-69
2023/10/06 06:59:44;;;;;;;113.00;10.87;;;8.30;99.90;;;;;;5070192;28;20566;-69
2023/10/06 07:02:11;;;;;;;63.73;11.00;;;8.20;99.90;;;;;;5069635;28;20452;-69
2023/10/06 07:04:38;;;;;;;90.97;11.00;;;8.30;99.90;;;;;;5070618;28;20456;-69
2023/10/06 07:07:04;;;;;;;123.50;12.50;;;8.40;99.90;;;;;;5070238;28;20993;-69
2023/10/06 07:09:31;;;;;;;72.70;11.03;;;8.40;99.90;;;;;;5071657;28;20547;-69
2023/10/06 07:11:59;;;;;;;95.03;10.33;;;8.50;99.90;;;;;;5074308;28;20561;-69
2023/10/06 07:14:27;;;;;;;56.07;11.17;;;8.50;99.90;;;;;;5071028;28;20448;-69
2023/10/06 07:16:54;;;;;;;51.57;11.37;;;8.60;99.90;;;;;;5056002;28;20468;-69
2023/10/06 07:19:21;;;;;;;87.37;11.23;;;8.70;99.90;;;;;;5074182;28;20488;-69
2023/10/06 07:21:49;;;;;;;153.40;12.67;;;8.80;99.90;;;;;;5071849;28;20459;-70
2023/10/06 07:24:15;;;;;;;76.40;9.40;;;8.80;99.90;;;;;;5074358;28;20447;-70
2023/10/06 07:26:43;;;;;;;51.93;10.43;;;8.80;99.90;;;;;;5067864;28;20835;-69
2023/10/06 07:29:11;;;;;;;121.67;11.60;;;8.80;99.90;;;;;;5073959;28;20460;-70
2023/10/06 07:31:38;;;;;;;116.40;12.30;;;8.80;99.90;;;;;;5069822;28;20459;-69
2023/10/06 07:34:05;;;;;;;82.43;11.03;;;8.70;99.90;;;;;;5074139;28;20465;-69
2023/10/06 07:36:35;;;;;;;73.37;10.90;;;8.70;99.90;;;;;;5074234;28;20467;-69
2023/10/06 07:39:03;;;;;;;96.17;11.50;;;8.70;99.90;;;;;;5073967;28;20451;-69
2023/10/06 07:41:30;;;;;;;77.10;10.93;;;8.70;99.90;;;;;;5072381;28;20457;-69
2023/10/06 07:43:57;;;;;;;121.33;12.93;;;8.80;99.90;;;;;;5074180;28;20439;-70
2023/10/06 07:46:26;;;;;;;105.53;11.93;;;8.80;99.90;;;;;;5073847;28;20478;-70
2023/10/06 07:48:55;;;;;;;76.00;11.47;;;8.70;99.90;;;;;;5073742;28;20487;-70
2023/10/06 07:51:23;;;;;;;47.37;11.23;;;8.80;99.90;;;;;;5071936;28;20473;-70
2023/10/06 07:53:50;;;;;;;17.70;9.97;;;8.90;99.90;;;;;;5072255;28;20531;-70
2023/10/06 07:56:18;;;;;;;67.03;11.90;;;8.90;99.90;;;;;;5072089;28;20475;-70
2023/10/06 07:58:45;;;;;;;164.27;15.17;;;9.00;99.90;;;;;;5073028;28;20451;-70
2023/10/06 08:01:12;;;;;;;74.23;12.83;;;9.10;99.90;;;;;;5070631;28;20452;-70
2023/10/06 08:03:41;;;;;;;33.37;12.90;;;9.20;99.90;;;;;;5072325;28;20452;-70
2023/10/06 08:06:09;;;;;;;115.10;13.27;;;9.30;99.90;;;;;;5072265;28;20468;-71
2023/10/06 08:08:37;;;;;;;161.60;13.77;;;9.40;99.90;;;;;;5071883;28;20484;-70
2023/10/06 08:11:05;;;;;;;162.13;14.73;;;9.30;99.90;;;;;;5070441;28;20891;-70
2023/10/06 08:13:33;;;;;;;130.47;13.63;;;9.30;99.90;;;;;;5072847;28;20932;-70
2023/10/06 08:16:00;;;;;;;42.43;11.00;;;9.30;99.90;;;;;;5072712;28;20471;-70
2023/10/06 08:18:29;;;;;;;27.23;10.17;;;9.30;99.90;;;;;;5072563;28;20447;-71
2023/10/06 08:21:00;;;;;;;27.20;10.60;;;9.40;99.90;;;;;;5071110;28;20443;-70
2023/10/06 08:23:27;;;;;;;49.93;11.33;;;9.50;99.90;;;;;;5070314;28;20464;-70
2023/10/06 08:25:56;;;;;;;41.13;12.40;;;9.60;99.90;;;;;;5072666;28;20901;-70
2023/10/06 08:28:23;;;;;;;34.43;12.20;;;9.80;99.90;;;;;;5070919;28;20848;-70
2023/10/06 08:30:49;;;;;;;38.30;12.50;;;10.00;99.90;;;;;;5072406;28;20455;-71
2023/10/06 08:33:16;;;;;;;20.60;12.10;;;10.10;99.90;;;;;;5072214;28;20459;-71
2023/10/06 08:35:44;;;;;;;49.23;14.43;;;10.10;99.90;;;;;;5071350;28;20479;-71
2023/10/06 08:38:12;;;;;;;41.63;12.40;;;10.20;99.90;;;;;;5071917;28;20455;-71
2023/10/06 08:40:42;;;;;;;35.87;12.83;;;10.20;99.90;;;;;;5072321;28;20498;-70
2023/10/06 08:43:10;;;;;;;20.60;12.10;;;10.30;99.90;;;;;;5072174;28;21008;-71
2023/10/06 08:45:41;;;;;;;37.33;13.97;;;10.30;99.90;;;;;;5062440;28;20505;-69
2023/10/06 08:48:13;;;;;;;21.73;14.23;;;10.30;99.90;;;;;;5071278;28;20515;-69
2023/10/06 08:50:43;;;;;;;27.30;14.40;;;10.40;99.90;;;;;;5066025;28;20451;-68
2023/10/06 08:53:13;;;;;;;22.97;15.00;;;10.50;99.90;;;;;;5071392;28;20994;-69
2023/10/06 08:55:40;;;;;;;25.70;14.77;;;10.50;99.90;;;;;;5071355;28;20819;-69
2023/10/06 08:58:07;;;;;;;28.77;15.23;;;10.60;99.90;;;;;;5070818;28;20952;-69
2023/10/06 09:00:36;;;;;;;26.83;14.20;;;10.70;99.90;;;;;;5071360;28;20458;-69
2023/10/06 09:03:07;;;;;;;24.10;14.97;;;10.80;99.90;;;;;;5070873;28;20483;-68
2023/10/06 09:05:36;;;;;;;28.77;15.50;;;10.80;99.90;;;;;;5071286;28;20865;-68
2023/10/06 09:08:05;;;;;;;29.30;16.90;;;10.80;99.90;;;;;;5071017;28;20566;-68
2023/10/06 09:10:33;;;;;;;27.83;16.97;;;10.80;99.90;;;;;;5070869;28;20439;-68
2023/10/06 09:13:02;;;;;;;36.80;18.53;;;10.90;99.90;;;;;;5070941;28;20452;-68
2023/10/06 09:15:30;;;;;;;36.47;19.90;;;11.00;99.90;;;;;;5071309;28;20481;-68
2023/10/06 09:17:57;;;;;;;33.93;19.47;;;11.20;99.90;;;;;;5070785;28;20456;-69
2023/10/06 09:20:30;;;;;;;33.27;18.20;;;11.40;99.90;;;;;;5070861;28;20509;-69
2023/10/06 09:22:58;;;;;;;30.20;16.63;;;11.50;99.90;;;;;;5070717;28;20489;-68
2023/10/06 09:25:26;;;;;;;32.93;18.60;;;11.60;99.90;;;;;;5070624;28;21030;-68
2023/10/06 09:28:04;;;;;;;32.43;18.93;;;11.60;99.90;;;;;;5070719;28;20515;-68
2023/10/06 09:30:31;;;;;;;28.90;17.60;;;11.60;99.90;;;;;;5070242;28;20448;-71
2023/10/06 09:33:05;;;;;;;34.87;17.90;;;11.60;99.90;;;;;;5068285;28;20505;-68
2023/10/06 09:35:32;;;;;;;33.00;17.47;;;11.70;99.90;;;;;;5070772;28;20530;-71
2023/10/06 09:38:10;;;;;;;29.33;18.10;;;11.80;99.90;;;;;;5069794;28;20896;-68
2023/10/06 09:40:42;;;;;;;26.33;17.80;;;11.80;99.90;;;;;;5069360;28;20455;-68
2023/10/06 09:43:13;;;;;;;28.90;18.10;;;11.70;99.90;;;;;;5068577;28;20459;-68
2023/10/06 09:45:42;;;;;;;32.73;18.40;;;11.60;99.90;;;;;;5066776;28;21012;-70
2023/10/06 09:48:13;;;;;;;32.50;20.50;;;11.70;99.90;;;;;;5070259;28;20536;-70
2023/10/06 09:50:43;;;;;;;35.27;20.17;;;11.70;99.90;;;;;;5070397;28;20474;-70
2023/10/06 09:53:12;;;;;;;33.27;20.17;;;11.80;99.90;;;;;;5070050;28;20534;-70
2023/10/06 09:55:40;;;;;;;35.47;19.63;;;11.90;99.90;;;;;;5070249;28;20467;-72
2023/10/06 09:58:07;;;;;;;32.90;20.77;;;12.00;99.90;;;;;;5070105;28;20448;-71
2023/10/06 10:00:39;;;;;;;36.87;20.40;;;12.20;99.90;;;;;;5069781;28;20797;-69
2023/10/06 10:03:07;;;;;;;41.50;21.27;;;12.30;99.90;;;;;;5065580;28;20602;-68
2023/10/06 10:05:38;;;;;;;35.80;21.00;;;12.40;99.90;;;;;;5070826;28;20539;-69
2023/10/06 10:08:05;;;;;;;31.67;21.00;;;12.60;99.90;;;;;;5069418;28;20506;-69
2023/10/06 10:10:34;;;;;;;35.67;22.47;;;12.60;99.90;;;;;;5070281;28;20505;-68
2023/10/06 10:13:31;;;;;;;37.33;23.07;;;12.60;99.90;;;;;;5069802;28;20426;-69
2023/10/06 10:16:12;;;;;;;38.90;23.70;;;12.60;99.90;;;;;;5068357;28;20554;-69
2023/10/06 10:18:41;;;;;;;35.47;22.60;;;12.80;99.90;;;;;;5070972;28;20443;-69
2023/10/06 10:21:11;;;;;;;37.40;22.47;;;13.10;99.90;;;;;;5071571;28;20509;-71
2023/10/06 10:23:40;;;;;;;33.50;22.50;;;13.30;99.90;;;;;;5070329;28;20456;-69
2023/10/06 10:26:15;;;;;;;36.43;21.40;;;13.60;99.90;;;;;;5070301;28;20463;-69
2023/10/06 10:28:43;;;;;;;34.60;20.20;;;13.70;99.90;;;;;;5067019;28;20511;-69
2023/10/06 10:31:17;;;;;;;33.70;21.87;;;13.90;99.90;;;;;;5071132;28;20819;-71
2023/10/06 10:33:46;;;;;;;37.33;20.63;;;14.10;99.90;;;;;;5071076;28;20448;-69
2023/10/06 10:36:23;;;;;;;34.67;20.23;;;14.60;99.90;;;;;;5070761;28;20562;-69
2023/10/06 10:39:02;;;;;;;29.37;20.00;;;15.20;99.90;;;;;;5067984;28;20811;-69
2023/10/06 10:41:35;;;;;;;31.43;18.97;;;15.90;99.90;;;;;;5069629;28;20451;-69
2023/10/06 10:44:02;;;;;;;33.67;19.27;;;16.20;99.90;;;;;;5071759;28;20534;-69
2023/10/06 10:46:39;;;;;;;26.33;17.93;;;16.70;99.90;;;;;;5075038;28;20496;-69
2023/10/06 10:49:10;;;;;;;27.03;17.43;;;16.70;99.90;;;;;;5074078;28;21081;-69
2023/10/06 10:51:50;;;;;;;33.33;19.13;;;16.50;99.90;;;;;;5075042;28;20440;-69
2023/10/06 10:54:20;;;;;;;28.20;19.50;;;16.30;99.90;;;;;;5069505;28;20463;-69
2023/10/06 10:56:51;;;;;;;30.83;18.57;;;16.50;99.90;;;;;;5074504;28;20789;-69
2023/10/06 10:59:18;;;;;;;29.13;19.50;;;16.90;99.90;;;;;;5074150;28;20441;-69
2023/10/06 11:01:51;;;;;;;40.20;20.87;;;17.30;99.90;;;;;;5074462;28;20467;-69
2023/10/06 11:04:24;;;;;;;31.17;21.30;;;17.70;99.90;;;;;;5073657;28;20456;-69
2023/10/06 11:06:52;;;;;;;33.90;21.93;;;17.90;99.90;;;;;;5074216;28;20998;-69
2023/10/06 11:09:40;;;;;;;31.47;20.77;;;18.10;99.90;;;;;;5073230;28;21000;-68
2023/10/06 11:12:23;;;;;;;34.43;21.70;;;18.20;99.90;;;;;;5072444;28;20448;-69
2023/10/06 11:14:51;;;;;;;30.47;20.00;;;18.40;99.90;;;;;;5074434;28;20760;-69
2023/10/06 11:17:22;;;;;;;31.57;19.17;;;18.40;99.90;;;;;;5074223;28;20470;-69
2023/10/06 11:20:00;;;;;;;33.95;19.65;;;18.70;99.90;;;;;;5075737;28;20459;-70
2023/10/06 11:22:28;;;;;;;29.70;18.53;;;19.20;99.90;;;;;;5071110;28;20300;-70
2023/10/06 11:24:57;;;;;;;29.77;17.77;;;19.40;99.90;;;;;;5073576;28;20901;-70
2023/10/06 11:27:25;;;;;;;36.93;19.30;;;19.60;99.90;;;;;;5071105;28;20529;-70
2023/10/06 11:29:52;;;;;;;29.50;18.17;;;20.10;99.90;;;;;;5074045;28;20579;-70
2023/10/06 11:32:21;;;;;;;30.77;17.97;;;20.40;99.90;;;;;;5073373;28;20451;-70
2023/10/06 11:34:49;;;;;;;25.33;16.93;;;20.80;99.90;;;;;;5074048;28;20521;-70
2023/10/06 11:37:17;;;;;;;28.43;17.37;;;21.10;99.90;;;;;;5073801;28;20570;-70
2023/10/06 11:39:44;;;;;;;26.83;14.63;;;21.20;99.90;;;;;;5069612;28;20632;-70
2023/10/06 11:42:36;;;;;;;26.37;16.47;;;21.50;99.90;;;;;;5074199;28;20443;-70
2023/10/06 11:45:11;;;;;;;20.77;15.10;;;21.70;99.90;;;;;;5074513;28;20443;-70
2023/10/06 11:47:40;;;;;;;23.57;14.43;;;21.70;99.90;;;;;;5073788;28;20545;-70
2023/10/06 11:50:08;;;;;;;21.50;13.23;;;22.00;99.90;;;;;;5073732;28;20845;-70
2023/10/06 11:52:35;;;;;;;19.60;9.80;;;22.10;99.90;;;;;;5056313;28;20448;-70
2023/10/06 11:55:08;;;;;;;16.60;9.67;;;22.20;99.90;;;;;;5072960;28;20455;-70
2023/10/06 11:57:44;;;;;;;23.63;8.17;;;22.30;99.90;;;;;;5073359;28;20467;-70
2023/10/06 12:00:12;;;;;;;9.80;6.00;;;22.40;99.90;;;;;;5073714;28;20453;-70
2023/10/06 12:02:49;;;;;;;10.67;5.80;;;22.50;99.90;;;;;;5072957;28;20506;-70
2023/10/06 12:05:17;;;;;;;9.90;5.97;;;22.60;99.90;;;;;;5071545;28;20818;-70
2023/10/06 12:07:44;;;;;;;11.17;5.87;;;22.80;99.90;;;;;;5073051;28;20850;-70
2023/10/06 12:10:11;;;;;;;14.03;5.60;;;23.00;99.90;;;;;;5073062;28;21007;-70
2023/10/06 12:12:40;;;;;;;11.63;5.30;;;23.30;99.90;;;;;;5073708;28;20479;-70
2023/10/06 12:15:07;;;;;;;17.43;5.23;;;23.40;99.90;;;;;;5073569;28;20459;-71
2023/10/06 12:17:38;;;;;;;9.43;4.90;;;23.20;99.90;;;;;;5072962;28;20471;-70
2023/10/06 12:20:13;;;;;;;12.00;4.83;;;23.30;99.90;;;;;;5072824;28;20459;-70
2023/10/06 12:22:40;;;;;;;13.60;5.60;;;23.00;99.90;;;;;;5072180;28;20455;-70
2023/10/06 12:25:08;;;;;;;8.20;4.83;;;22.70;99.90;;;;;;5072830;28;20481;-70
2023/10/06 12:27:34;;;;;;;10.53;4.90;;;22.80;99.90;;;;;;5072861;28;20968;-70
2023/10/06 12:30:03;;;;;;;9.57;4.67;;;22.60;99.90;;;;;;5070924;28;20483;-70
2023/10/06 12:32:30;;;;;;;11.30;4.77;;;22.60;99.90;;;;;;5073070;28;20451;-69
2023/10/06 12:34:59;;;;;;;10.53;5.03;;;22.70;99.90;;;;;;5071437;28;20509;-69
2023/10/06 12:37:27;;;;;;;10.00;5.40;;;22.60;99.90;;;;;;5071876;28;21008;-70
2023/10/06 12:39:55;;;;;;;9.40;4.90;;;22.00;99.90;;;;;;5071030;28;20448;-70
2023/10/06 12:42:22;;;;;;;11.50;5.57;;;21.80;99.90;;;;;;5069002;28;20803;-70
2023/10/06 12:44:48;;;;;;;7.80;4.93;;;21.50;99.90;;;;;;5072019;28;20866;-70
2023/10/06 12:47:15;;;;;;;10.43;5.50;;;21.10;99.90;;;;;;5072186;28;20521;-70
2023/10/06 12:49:43;;;;;;;17.83;5.80;;;20.60;99.90;;;;;;5069718;28;20491;-69
2023/10/06 12:52:10;;;;;;;9.60;4.80;;;20.20;99.90;;;;;;5071631;28;20968;-69